SPCL/PCL METAR and TAF weather

Enter ICAO airport designator
Station Type Date Time Source
SPCL METAR 2024/04/15 08:00 UTC NOAA

SPCL 150800Z 00000KT 9999 SCT015 26/25 Q1007 RMK PP000


Station Type Date Time Source
SPCL Decoded METAR 2024/04/15 08:00 UTC NOAA

Pucallpa, Peru (SPCL) 08-25S 074-36W 149M
Apr 15, 2024 - 04:00 AM EDT / 2024.04.15 0800 UTC
Wind: Calm:0
Visibility: greater than 7 mile(s):0
Sky conditions: partly cloudy
Temperature: 78 F (26 C)
Dew Point: 77 F (25 C)
Relative Humidity: 94%
Pressure (altimeter): 29.74 in. Hg (1007 hPa)
ob: SPCL 150800Z 00000KT 9999 SCT015 26/25 Q1007 RMK PP000
cycle: 8

Station Type Date Time Source
SPCL TAF 2024/04/15 06:33 UTC NOAA